sensor_id;sensor_type;location;lat;lon;timestamp;pressure;altitude;pressure_sealevel;temperature;humidity
76637;BME280;65532;52.124;5.480;2023-02-19T00:00:59;101737.44;;;9.15;0.00
76637;BME280;65532;52.124;5.480;2023-02-19T00:03:26;101728.88;;;9.12;0.00
76637;BME280;65532;52.124;5.480;2023-02-19T00:05:53;101718.06;;;9.12;0.00
76637;BME280;65532;52.124;5.480;2023-02-19T00:08:19;101724.50;;;9.11;0.00
76637;BME280;65532;52.124;5.480;2023-02-19T00:10:46;101719.94;;;9.11;0.00
76637;BME280;65532;52.124;5.480;2023-02-19T00:13:12;101720.97;;;9.10;0.00
76637;BME280;65532;52.124;5.480;2023-02-19T00:15:40;101731.78;;;9.10;0.00
76637;BME280;65532;52.124;5.480;2023-02-19T00:18:06;101729.06;;;9.10;0.00
76637;BME280;65532;52.124;5.480;2023-02-19T00:20:32;101722.84;;;9.10;0.00
76637;BME280;65532;52.124;5.480;2023-02-19T00:22:59;101732.81;;;9.09;0.00
76637;BME280;65532;52.124;5.480;2023-02-19T00:25:25;101737.38;;;9.09;0.00
76637;BME280;65532;52.124;5.480;2023-02-19T00:27:52;101735.50;;;9.09;0.00
76637;BME280;65532;52.124;5.480;2023-02-19T00:30:18;101737.19;;;9.10;0.00
76637;BME280;65532;52.124;5.480;2023-02-19T00:32:49;101738.84;;;9.11;0.00
76637;BME280;65532;52.124;5.480;2023-02-19T00:35:16;101742.59;;;9.10;0.00
76637;BME280;65532;52.124;5.480;2023-02-19T00:37:42;101739.88;;;9.10;0.00
76637;BME280;65532;52.124;5.480;2023-02-19T00:40:09;101728.44;;;9.08;0.00
76637;BME280;65532;52.124;5.480;2023-02-19T00:42:36;101736.56;;;9.08;0.00
76637;BME280;65532;52.124;5.480;2023-02-19T00:45:02;101742.16;;;9.07;0.00
76637;BME280;65532;52.124;5.480;2023-02-19T00:47:30;101737.78;;;9.06;0.00
76637;BME280;65532;52.124;5.480;2023-02-19T00:49:56;101736.97;;;9.05;0.00
76637;BME280;65532;52.124;5.480;2023-02-19T00:52:23;101744.84;;;9.07;0.00
76637;BME280;65532;52.124;5.480;2023-02-19T00:54:49;101748.38;;;9.07;0.00
76637;BME280;65532;52.124;5.480;2023-02-19T00:57:15;101740.91;;;9.09;0.00
76637;BME280;65532;52.124;5.480;2023-02-19T00:59:42;101745.28;;;9.10;0.00
76637;BME280;65532;52.124;5.480;2023-02-19T01:02:08;101741.56;;;9.11;0.00
76637;BME280;65532;52.124;5.480;2023-02-19T01:04:35;101743.22;;;9.12;0.00
76637;BME280;65532;52.124;5.480;2023-02-19T01:07:01;101748.81;;;9.11;0.00
76637;BME280;65532;52.124;5.480;2023-02-19T01:09:28;101746.94;;;9.11;0.00
76637;BME280;65532;52.124;5.480;2023-02-19T01:11:55;101749.03;;;9.09;0.00
76637;BME280;65532;52.124;5.480;2023-02-19T01:14:21;101746.94;;;9.11;0.00
76637;BME280;65532;52.124;5.480;2023-02-19T01:16:48;101754.03;;;9.12;0.00
76637;BME280;65532;52.124;5.480;2023-02-19T01:19:14;101759.44;;;9.12;0.00
76637;BME280;65532;52.124;5.480;2023-02-19T01:21:40;101756.94;;;9.11;0.00
76637;BME280;65532;52.124;5.480;2023-02-19T01:24:08;101763.16;;;9.11;0.00
76637;BME280;65532;52.124;5.480;2023-02-19T01:26:35;101769.41;;;9.12;0.00
76637;BME280;65532;52.124;5.480;2023-02-19T01:29:02;101765.22;;;9.09;0.00
76637;BME280;65532;52.124;5.480;2023-02-19T01:31:29;101774.16;;;9.10;0.00
76637;BME280;65532;52.124;5.480;2023-02-19T01:33:58;101770.84;;;9.08;0.00
76637;BME280;65532;52.124;5.480;2023-02-19T01:36:26;101773.75;;;9.06;0.00
76637;BME280;65532;52.124;5.480;2023-02-19T01:38:53;101773.09;;;9.04;0.00
76637;BME280;65532;52.124;5.480;2023-02-19T01:41:24;101774.78;;;9.05;0.00
76637;BME280;65532;52.124;5.480;2023-02-19T01:46:38;101780.56;;;9.02;0.00
76637;BME280;65532;52.124;5.480;2023-02-19T01:51:36;101771.38;;;8.96;0.00
76637;BME280;65532;52.124;5.480;2023-02-19T01:54:04;101780.50;;;8.95;0.00
76637;BME280;65532;52.124;5.480;2023-02-19T01:56:33;101773.44;;;8.94;0.00
76637;BME280;65532;52.124;5.480;2023-02-19T01:59:04;101774.69;;;8.92;0.00
76637;BME280;65532;52.124;5.480;2023-02-19T02:01:33;101772.38;;;8.89;0.00
76637;BME280;65532;52.124;5.480;2023-02-19T02:04:00;101781.72;;;8.86;0.00
76637;BME280;65532;52.124;5.480;2023-02-19T02:06:30;101767.38;;;8.86;0.00
76637;BME280;65532;52.124;5.480;2023-02-19T02:08:59;101777.34;;;8.85;0.00
76637;BME280;65532;52.124;5.480;2023-02-19T02:11:49;101782.28;;;8.82;0.00
76637;BME280;65532;52.124;5.480;2023-02-19T02:14:18;101776.88;;;8.82;0.00
76637;BME280;65532;52.124;5.480;2023-02-19T02:17:19;101784.16;;;8.81;0.00
76637;BME280;65532;52.124;5.480;2023-02-19T02:20:34;101777.91;;;8.81;0.00
76637;BME280;65532;52.124;5.480;2023-02-19T02:26:12;101778.94;;;8.80;0.00
76637;BME280;65532;52.124;5.480;2023-02-19T02:31:41;101780.19;;;8.77;0.00
76637;BME280;65532;52.124;5.480;2023-02-19T02:34:23;101785.78;;;8.76;0.00
76637;BME280;65532;52.124;5.480;2023-02-19T02:36:53;101790.34;;;8.75;0.00
76637;BME280;65532;52.124;5.480;2023-02-19T02:39:24;101787.84;;;8.74;0.00
76637;BME280;65532;52.124;5.480;2023-02-19T02:41:56;101784.31;;;8.73;0.00
76637;BME280;65532;52.124;5.480;2023-02-19T02:44:48;101793.25;;;8.74;0.00
76637;BME280;65532;52.124;5.480;2023-02-19T02:47:41;101795.09;;;8.73;0.00
76637;BME280;65532;52.124;5.480;2023-02-19T02:50:16;101806.09;;;8.72;0.00
76637;BME280;65532;52.124;5.480;2023-02-19T02:52:47;101795.94;;;8.74;0.00
76637;BME280;65532;52.124;5.480;2023-02-19T02:55:38;101805.28;;;8.71;0.00
76637;BME280;65532;52.124;5.480;2023-02-19T02:58:06;101799.03;;;8.70;0.00
76637;BME280;65532;52.124;5.480;2023-02-19T03:00:35;101799.88;;;8.71;0.00
76637;BME280;65532;52.124;5.480;2023-02-19T03:03:24;101804.44;;;8.70;0.00
76637;BME280;65532;52.124;5.480;2023-02-19T03:05:58;101807.34;;;8.69;0.00
76637;BME280;65532;52.124;5.480;2023-02-19T03:08:36;101802.78;;;8.69;0.00
76637;BME280;65532;52.124;5.480;2023-02-19T03:11:06;101805.47;;;8.69;0.00
76637;BME280;65532;52.124;5.480;2023-02-19T03:16:55;101815.59;;;8.67;0.00
76637;BME280;65532;52.124;5.480;2023-02-19T03:19:48;101815.22;;;8.70;0.00
76637;BME280;65532;52.124;5.480;2023-02-19T03:22:39;101816.91;;;8.72;0.00
76637;BME280;65532;52.124;5.480;2023-02-19T03:25:14;101820.63;;;8.70;0.00
76637;BME280;65532;52.124;5.480;2023-02-19T03:28:03;101827.69;;;8.72;0.00
76637;BME280;65532;52.124;5.480;2023-02-19T03:30:34;101822.31;;;8.72;0.00
76637;BME280;65532;52.124;5.480;2023-02-19T03:33:08;101824.38;;;8.69;0.00
76637;BME280;65532;52.124;5.480;2023-02-19T03:35:46;101831.63;;;8.69;0.00
76637;BME280;65532;52.124;5.480;2023-02-19T03:38:16;101826.41;;;8.67;0.00
76637;BME280;65532;52.124;5.480;2023-02-19T03:44:06;101828.09;;;8.68;0.00
76637;BME280;65532;52.124;5.480;2023-02-19T03:46:44;101833.50;;;8.68;0.00
76637;BME280;65532;52.124;5.480;2023-02-19T03:49:19;101837.88;;;8.69;0.00
76637;BME280;65532;52.124;5.480;2023-02-19T03:51:59;101845.13;;;8.69;0.00
76637;BME280;65532;52.124;5.480;2023-02-19T03:54:47;101845.97;;;8.69;0.00
76637;BME280;65532;52.124;5.480;2023-02-19T03:57:23;101846.78;;;8.70;0.00
76637;BME280;65532;52.124;5.480;2023-02-19T04:00:04;101853.38;;;8.67;0.00
76637;BME280;65532;52.124;5.480;2023-02-19T04:05:29;101866.06;;;8.67;0.00
76637;BME280;65532;52.124;5.480;2023-02-19T04:08:02;101864.84;;;8.69;0.00
76637;BME280;65532;52.124;5.480;2023-02-19T04:10:35;101858.78;;;8.67;0.00
76637;BME280;65532;52.124;5.480;2023-02-19T04:13:09;101867.28;;;8.64;0.00
76637;BME280;65532;52.124;5.480;2023-02-19T04:15:40;101873.72;;;8.63;0.00
76637;BME280;65532;52.124;5.480;2023-02-19T04:18:13;101875.78;;;8.61;0.00
76637;BME280;65532;52.124;5.480;2023-02-19T04:20:45;101880.72;;;8.58;0.00
76637;BME280;65532;52.124;5.480;2023-02-19T04:23:16;101887.16;;;8.57;0.00
76637;BME280;65532;52.124;5.480;2023-02-19T04:25:46;101891.72;;;8.56;0.00
76637;BME280;65532;52.124;5.480;2023-02-19T04:28:14;101892.75;;;8.55;0.00
76637;BME280;65532;52.124;5.480;2023-02-19T04:30:42;101889.41;;;8.53;0.00
76637;BME280;65532;52.124;5.480;2023-02-19T04:33:09;101889.56;;;8.52;0.00
76637;BME280;65532;52.124;5.480;2023-02-19T04:35:35;101896.84;;;8.51;0.00
76637;BME280;65532;52.124;5.480;2023-02-19T04:38:02;101900.56;;;8.50;0.00
76637;BME280;65532;52.124;5.480;2023-02-19T04:40:28;101906.16;;;8.49;0.00
76637;BME280;65532;52.124;5.480;2023-02-19T04:42:55;101911.75;;;8.47;0.00
76637;BME280;65532;52.124;5.480;2023-02-19T04:45:21;101918.81;;;8.48;0.00
76637;BME280;65532;52.124;5.480;2023-02-19T04:47:48;101926.91;;;8.48;0.00
76637;BME280;65532;52.124;5.480;2023-02-19T04:50:14;101925.03;;;8.49;0.00
76637;BME280;65532;52.124;5.480;2023-02-19T04:52:41;101927.53;;;8.50;0.00
76637;BME280;65532;52.124;5.480;2023-02-19T04:55:08;101931.28;;;8.49;0.00
76637;BME280;65532;52.124;5.480;2023-02-19T04:57:34;101939.38;;;8.49;0.00
76637;BME280;65532;52.124;5.480;2023-02-19T05:00:01;101945.41;;;8.51;0.00
76637;BME280;65532;52.124;5.480;2023-02-19T05:02:28;101946.09;;;8.53;0.00
76637;BME280;65532;52.124;5.480;2023-02-19T05:04:54;101946.09;;;8.53;0.00
76637;BME280;65532;52.124;5.480;2023-02-19T05:07:21;101952.88;;;8.49;0.00
76637;BME280;65532;52.124;5.480;2023-02-19T05:09:47;101951.66;;;8.52;0.00
76637;BME280;65532;52.124;5.480;2023-02-19T05:12:14;101947.47;;;8.49;0.00
76637;BME280;65532;52.124;5.480;2023-02-19T05:14:40;101949.13;;;8.50;0.00
76637;BME280;65532;52.124;5.480;2023-02-19T05:17:06;101954.53;;;8.50;0.00
76637;BME280;65532;52.124;5.480;2023-02-19T05:19:33;101957.22;;;8.50;0.00
76637;BME280;65532;52.124;5.480;2023-02-19T05:21:59;101962.63;;;8.50;0.00
76637;BME280;65532;52.124;5.480;2023-02-19T05:24:26;101967.00;;;8.51;0.00
76637;BME280;65532;52.124;5.480;2023-02-19T05:26:53;101970.09;;;8.48;0.00
76637;BME280;65532;52.124;5.480;2023-02-19T05:29:19;101965.53;;;8.49;0.00
76637;BME280;65532;52.124;5.480;2023-02-19T05:31:46;101976.50;;;8.47;0.00
76637;BME280;65532;52.124;5.480;2023-02-19T05:34:14;101976.91;;;8.44;0.00
76637;BME280;65532;52.124;5.480;2023-02-19T05:36:40;101976.91;;;8.44;0.00
76637;BME280;65532;52.124;5.480;2023-02-19T05:39:10;101974.59;;;8.41;0.00
76637;BME280;65532;52.124;5.480;2023-02-19T05:41:37;101979.97;;;8.41;0.00
76637;BME280;65532;52.124;5.480;2023-02-19T05:44:04;101973.94;;;8.39;0.00
76637;BME280;65532;52.124;5.480;2023-02-19T05:46:30;101978.50;;;8.38;0.00
76637;BME280;65532;52.124;5.480;2023-02-19T05:48:58;101982.22;;;8.37;0.00
76637;BME280;65532;52.124;5.480;2023-02-19T05:51:25;101978.00;;;8.35;0.00
76637;BME280;65532;52.124;5.480;2023-02-19T05:53:52;101980.72;;;8.35;0.00
76637;BME280;65532;52.124;5.480;2023-02-19T05:56:30;101979.69;;;8.36;0.00
76637;BME280;65532;52.124;5.480;2023-02-19T05:58:58;101980.72;;;8.35;0.00
76637;BME280;65532;52.124;5.480;2023-02-19T06:01:26;101980.03;;;8.33;0.00
76637;BME280;65532;52.124;5.480;2023-02-19T06:03:53;101986.25;;;8.33;0.00
76637;BME280;65532;52.124;5.480;2023-02-19T06:06:24;101997.94;;;8.34;0.00
76637;BME280;65532;52.124;5.480;2023-02-19T06:08:51;101995.38;;;8.32;0.00
76637;BME280;65532;52.124;5.480;2023-02-19T06:11:18;101993.53;;;8.33;0.00
76637;BME280;65532;52.124;5.480;2023-02-19T06:13:45;101995.22;;;8.34;0.00
76637;BME280;65532;52.124;5.480;2023-02-19T06:16:11;102000.63;;;8.34;0.00
76637;BME280;65532;52.124;5.480;2023-02-19T06:18:38;102007.69;;;8.35;0.00
76637;BME280;65532;52.124;5.480;2023-02-19T06:21:08;102012.41;;;8.33;0.00
76637;BME280;65532;52.124;5.480;2023-02-19T06:23:35;102024.59;;;8.29;0.00
76637;BME280;65532;52.124;5.480;2023-02-19T06:26:10;102026.66;;;8.27;0.00
76637;BME280;65532;52.124;5.480;2023-02-19T06:28:38;102032.50;;;8.30;0.00
76637;BME280;65532;52.124;5.480;2023-02-19T06:31:06;102037.25;;;8.28;0.00
76637;BME280;65532;52.124;5.480;2023-02-19T06:33:33;102039.13;;;8.28;0.00
76637;BME280;65532;52.124;5.480;2023-02-19T06:36:02;102042.00;;;8.26;0.00
76637;BME280;65532;52.124;5.480;2023-02-19T06:38:29;102043.88;;;8.26;0.00
76637;BME280;65532;52.124;5.480;2023-02-19T06:41:00;102044.25;;;8.23;0.00
76637;BME280;65532;52.124;5.480;2023-02-19T06:43:27;102050.81;;;8.20;0.00
76637;BME280;65532;52.124;5.480;2023-02-19T06:45:57;102048.31;;;8.19;0.00
76637;BME280;65532;52.124;5.480;2023-02-19T06:48:28;102053.72;;;8.19;0.00
76637;BME280;65532;52.124;5.480;2023-02-19T06:50:55;102051.03;;;8.19;0.00
76637;BME280;65532;52.124;5.480;2023-02-19T06:53:21;102064.50;;;8.19;0.00
76637;BME280;65532;52.124;5.480;2023-02-19T06:58:21;102068.41;;;8.16;0.00
76637;BME280;65532;52.124;5.480;2023-02-19T07:00:48;102070.47;;;8.14;0.00
76637;BME280;65532;52.124;5.480;2023-02-19T07:03:14;102072.31;;;8.14;0.00
76637;BME280;65532;52.124;5.480;2023-02-19T07:05:41;102074.00;;;8.15;0.00
76637;BME280;65532;52.124;5.480;2023-02-19T07:08:11;102089.16;;;8.16;0.00
76637;BME280;65532;52.124;5.480;2023-02-19T07:10:38;102087.66;;;8.13;0.00
76637;BME280;65532;52.124;5.480;2023-02-19T07:13:04;102090.56;;;8.11;0.00
76637;BME280;65532;52.124;5.480;2023-02-19T07:15:31;102095.94;;;8.11;0.00
76637;BME280;65532;52.124;5.480;2023-02-19T07:17:58;102095.75;;;8.13;0.00
76637;BME280;65532;52.124;5.480;2023-02-19T07:20:24;102108.41;;;8.13;0.00
76637;BME280;65532;52.124;5.480;2023-02-19T07:22:51;102103.84;;;8.13;0.00
76637;BME280;65532;52.124;5.480;2023-02-19T07:25:17;102114.66;;;8.13;0.00
76637;BME280;65532;52.124;5.480;2023-02-19T07:27:44;102118.19;;;8.14;0.00
76637;BME280;65532;52.124;5.480;2023-02-19T07:30:10;102130.00;;;8.13;0.00
76637;BME280;65532;52.124;5.480;2023-02-19T07:32:40;102126.28;;;8.14;0.00
76637;BME280;65532;52.124;5.480;2023-02-19T07:35:07;102126.72;;;8.17;0.00
76637;BME280;65532;52.124;5.480;2023-02-19T07:37:33;102127.56;;;8.18;0.00
76637;BME280;65532;52.124;5.480;2023-02-19T07:40:00;102139.00;;;8.20;0.00
76637;BME280;65532;52.124;5.480;2023-02-19T07:42:26;102136.81;;;8.23;0.00
76637;BME280;65532;52.124;5.480;2023-02-19T07:44:53;102134.94;;;8.24;0.00
76637;BME280;65532;52.124;5.480;2023-02-19T07:47:19;102130.22;;;8.26;0.00
76637;BME280;65532;52.124;5.480;2023-02-19T07:49:45;102143.50;;;8.27;0.00
76637;BME280;65532;52.124;5.480;2023-02-19T07:52:12;102143.31;;;8.29;0.00
76637;BME280;65532;52.124;5.480;2023-02-19T07:54:38;102149.38;;;8.31;0.00
76637;BME280;65532;52.124;5.480;2023-02-19T07:57:05;102144.63;;;8.33;0.00
76637;BME280;65532;52.124;5.480;2023-02-19T07:59:31;102154.41;;;8.34;0.00
76637;BME280;65532;52.124;5.480;2023-02-19T08:01:58;102153.06;;;8.38;0.00
76637;BME280;65532;52.124;5.480;2023-02-19T08:04:43;102159.63;;;8.35;0.00
76637;BME280;65532;52.124;5.480;2023-02-19T08:07:10;102169.44;;;8.36;0.00
76637;BME280;65532;52.124;5.480;2023-02-19T08:09:37;102160.31;;;8.37;0.00
76637;BME280;65532;52.124;5.480;2023-02-19T08:12:03;102172.97;;;8.37;0.00
76637;BME280;65532;52.124;5.480;2023-02-19T08:14:48;102177.34;;;8.38;0.00
76637;BME280;65532;52.124;5.480;2023-02-19T08:17:15;102181.06;;;8.37;0.00
76637;BME280;65532;52.124;5.480;2023-02-19T08:19:41;102181.91;;;8.37;0.00
76637;BME280;65532;52.124;5.480;2023-02-19T08:22:08;102188.97;;;8.38;0.00
76637;BME280;65532;52.124;5.480;2023-02-19T08:24:34;102189.81;;;8.39;0.00
76637;BME280;65532;52.124;5.480;2023-02-19T08:27:03;102183.19;;;8.42;0.00
76637;BME280;65532;52.124;5.480;2023-02-19T08:29:29;102197.53;;;8.42;0.00
76637;BME280;65532;52.124;5.480;2023-02-19T08:31:56;102206.66;;;8.41;0.00
76637;BME280;65532;52.124;5.480;2023-02-19T08:34:22;102212.88;;;8.42;0.00
76637;BME280;65532;52.124;5.480;2023-02-19T08:36:49;102212.06;;;8.41;0.00
76637;BME280;65532;52.124;5.480;2023-02-19T08:39:15;102218.47;;;8.40;0.00
76637;BME280;65532;52.124;5.480;2023-02-19T08:41:44;102218.47;;;8.40;0.00
76637;BME280;65532;52.124;5.480;2023-02-19T08:44:11;102225.53;;;8.41;0.00
76637;BME280;65532;52.124;5.480;2023-02-19T08:46:37;102230.94;;;8.41;0.00
76637;BME280;65532;52.124;5.480;2023-02-19T08:49:04;102233.81;;;8.39;0.00
76637;BME280;65532;52.124;5.480;2023-02-19T08:51:30;102241.75;;;8.41;0.00
76637;BME280;65532;52.124;5.480;2023-02-19T08:53:57;102233.00;;;8.39;0.00
76637;BME280;65532;52.124;5.480;2023-02-19T08:56:23;102229.72;;;8.44;0.00
76637;BME280;65532;52.124;5.480;2023-02-19T08:58:50;102230.94;;;8.41;0.00
76637;BME280;65532;52.124;5.480;2023-02-19T09:01:16;102225.53;;;8.41;0.00
76637;BME280;65532;52.124;5.480;2023-02-19T09:03:44;102234.66;;;8.40;0.00
76637;BME280;65532;52.124;5.480;2023-02-19T09:06:15;102233.44;;;8.43;0.00
76637;BME280;65532;52.124;5.480;2023-02-19T09:08:42;102233.53;;;8.49;0.00
76637;BME280;65532;52.124;5.480;2023-02-19T09:11:09;102218.69;;;8.53;0.00
76637;BME280;65532;52.124;5.480;2023-02-19T09:13:36;102230.03;;;8.63;0.00
76637;BME280;65532;52.124;5.480;2023-02-19T09:16:03;102237.59;;;8.68;0.00
76637;BME280;65532;52.124;5.480;2023-02-19T09:18:30;102240.03;;;8.78;0.00
76637;BME280;65532;52.124;5.480;2023-02-19T09:21:01;102256.31;;;8.99;0.00
76637;BME280;65532;52.124;5.480;2023-02-19T09:23:32;102243.50;;;9.01;0.00
76637;BME280;65532;52.124;5.480;2023-02-19T09:26:00;102254.38;;;9.08;0.32
76637;BME280;65532;52.124;5.480;2023-02-19T09:28:26;102258.56;;;9.10;7.03
76637;BME280;65532;52.124;5.480;2023-02-19T09:30:53;102262.22;;;9.17;9.13
76637;BME280;65532;52.124;5.480;2023-02-19T09:33:20;102272.91;;;9.25;12.46
76637;BME280;65532;52.124;5.480;2023-02-19T09:35:46;102283.66;;;9.19;22.28
76637;BME280;65532;52.124;5.480;2023-02-19T09:38:13;102281.47;;;9.14;23.33
76637;BME280;65532;52.124;5.480;2023-02-19T09:40:39;102290.44;;;9.15;24.91
76637;BME280;65532;52.124;5.480;2023-02-19T09:43:16;102301.41;;;9.13;27.59
76637;BME280;65532;52.124;5.480;2023-02-19T09:45:43;102303.78;;;9.16;27.28
76637;BME280;65532;52.124;5.480;2023-02-19T09:48:10;102308.81;;;9.19;29.89
76637;BME280;65532;52.124;5.480;2023-02-19T09:50:44;102317.28;;;9.16;33.96
76637;BME280;65532;52.124;5.480;2023-02-19T09:53:39;102321.75;;;9.09;38.62
76637;BME280;65532;52.124;5.480;2023-02-19T09:56:06;102325.47;;;9.08;38.41
76637;BME280;65532;52.124;5.480;2023-02-19T09:58:36;102334.31;;;9.02;40.12
76637;BME280;65532;52.124;5.480;2023-02-19T10:01:09;102330.13;;;8.99;39.08
76637;BME280;65532;52.124;5.480;2023-02-19T10:03:38;102341.84;;;8.92;39.26
76637;BME280;65532;52.124;5.480;2023-02-19T10:06:19;102338.66;;;8.88;38.65
76637;BME280;65532;52.124;5.480;2023-02-19T10:08:53;102351.31;;;8.88;38.15
76637;BME280;65532;52.124;5.480;2023-02-19T10:11:23;102360.81;;;8.84;37.12
76637;BME280;65532;52.124;5.480;2023-02-19T10:14:00;102376.72;;;8.56;42.20
76637;BME280;65532;52.124;5.480;2023-02-19T10:16:29;102367.91;;;8.39;45.11
76637;BME280;65532;52.124;5.480;2023-02-19T10:18:56;102377.78;;;8.16;41.62
76637;BME280;65532;52.124;5.480;2023-02-19T10:21:24;102380.66;;;8.14;32.89
76637;BME280;65532;52.124;5.480;2023-02-19T10:23:59;102393.94;;;8.24;27.48
76637;BME280;65532;52.124;5.480;2023-02-19T10:26:27;102394.25;;;8.29;24.98
76637;BME280;65532;52.124;5.480;2023-02-19T10:28:53;102400.13;;;8.32;23.88
76637;BME280;65532;52.124;5.480;2023-02-19T10:31:22;102404.69;;;8.32;25.17
76637;BME280;65532;52.124;5.480;2023-02-19T10:33:57;102408.41;;;8.31;25.89
76637;BME280;65532;52.124;5.480;2023-02-19T10:36:26;102408.06;;;8.34;25.34
76637;BME280;65532;52.124;5.480;2023-02-19T10:38:58;102415.84;;;8.29;26.14
76637;BME280;65532;52.124;5.480;2023-02-19T10:41:26;102413.13;;;8.37;22.73
76637;BME280;65532;52.124;5.480;2023-02-19T10:44:05;102412.41;;;8.43;23.87
76637;BME280;65532;52.124;5.480;2023-02-19T10:46:41;102412.03;;;8.46;24.66
76637;BME280;65532;52.124;5.480;2023-02-19T10:49:28;102413.03;;;8.53;26.59
76637;BME280;65532;52.124;5.480;2023-02-19T10:52:00;102414.72;;;8.54;32.09
76637;BME280;65532;52.124;5.480;2023-02-19T10:54:30;102423.47;;;8.56;32.39
76637;BME280;65532;52.124;5.480;2023-02-19T11:00:02;102413.81;;;8.62;38.33
76637;BME280;65532;52.124;5.480;2023-02-19T11:02:29;102407.84;;;8.66;39.38
76637;BME280;65532;52.124;5.480;2023-02-19T11:07:51;102404.44;;;8.73;48.32
76637;BME280;65532;52.124;5.480;2023-02-19T11:12:53;102408.88;;;8.65;55.52
76637;BME280;65532;52.124;5.480;2023-02-19T11:15:29;102412.22;;;8.67;55.05
76637;BME280;65532;52.124;5.480;2023-02-19T11:20:27;102414.75;;;8.46;55.71
76637;BME280;65532;52.124;5.480;2023-02-19T11:23:00;102416.59;;;8.46;52.44
76637;BME280;65532;52.124;5.480;2023-02-19T11:25:28;102420.88;;;8.40;55.97
76637;BME280;65532;52.124;5.480;2023-02-19T11:28:05;102420.94;;;8.24;53.71
76637;BME280;65532;52.124;5.480;2023-02-19T11:30:43;102426.09;;;8.33;48.98
76637;BME280;65532;52.124;5.480;2023-02-19T11:35:43;102422.06;;;8.37;45.64
76637;BME280;65532;52.124;5.480;2023-02-19T11:38:12;102424.41;;;8.40;45.28
76637;BME280;65532;52.124;5.480;2023-02-19T11:43:39;102433.34;;;8.41;41.59
76637;BME280;65532;52.124;5.480;2023-02-19T11:46:17;102440.13;;;8.37;49.34
76637;BME280;65532;52.124;5.480;2023-02-19T11:59:55;102433.44;;;7.69;44.83
76637;BME280;65532;52.124;5.480;2023-02-19T12:08:40;102448.16;;;7.34;29.39
76637;BME280;65532;52.124;5.480;2023-02-19T12:16:43;102440.44;;;7.15;18.68
76637;BME280;65532;52.124;5.480;2023-02-19T12:19:32;102447.47;;;7.24;9.26
76637;BME280;65532;52.124;5.480;2023-02-19T12:22:32;102452.22;;;7.30;7.11
76637;BME280;65532;52.124;5.480;2023-02-19T12:47:01;102468.38;;;7.14;22.66
76637;BME280;65532;52.124;5.480;2023-02-19T12:49:33;102472.91;;;6.97;26.28
76637;BME280;65532;52.124;5.480;2023-02-19T12:52:40;102479.47;;;6.95;18.25
76637;BME280;65532;52.124;5.480;2023-02-19T12:55:23;102491.56;;;6.82;19.28
76637;BME280;65532;52.124;5.480;2023-02-19T12:57:50;102487.50;;;6.78;16.81
76637;BME280;65532;52.124;5.480;2023-02-19T13:00:34;102492.38;;;6.67;20.00
76637;BME280;65532;52.124;5.480;2023-02-19T13:03:34;102498.56;;;6.59;24.79
76637;BME280;65532;52.124;5.480;2023-02-19T13:06:10;102505.47;;;6.61;23.75
76637;BME280;65532;52.124;5.480;2023-02-19T13:08:49;102499.63;;;6.74;22.20
76637;BME280;65532;52.124;5.480;2023-02-19T13:11:45;102503.47;;;6.64;35.38
76637;BME280;65532;52.124;5.480;2023-02-19T13:16:57;102515.25;;;6.71;30.82
76637;BME280;65532;52.124;5.480;2023-02-19T13:19:25;102519.13;;;6.76;28.42
76637;BME280;65532;52.124;5.480;2023-02-19T13:22:02;102530.22;;;6.73;28.26
76637;BME280;65532;52.124;5.480;2023-02-19T13:24:50;102537.31;;;6.74;25.71
76637;BME280;65532;52.124;5.480;2023-02-19T13:27:40;102541.34;;;6.70;25.11
76637;BME280;65532;52.124;5.480;2023-02-19T13:30:26;102538.81;;;6.69;24.65
76637;BME280;65532;52.124;5.480;2023-02-19T13:33:10;102536.63;;;6.64;25.34
76637;BME280;65532;52.124;5.480;2023-02-19T13:38:15;102538.94;;;6.59;28.19
76637;BME280;65532;52.124;5.480;2023-02-19T13:40:52;102546.66;;;6.54;31.72
76637;BME280;65532;52.124;5.480;2023-02-19T13:43:23;102544.66;;;6.56;35.39
76637;BME280;65532;52.124;5.480;2023-02-19T13:45:57;102536.06;;;6.60;36.62
76637;BME280;65532;52.124;5.480;2023-02-19T13:48:31;102548.72;;;6.68;35.96
76637;BME280;65532;52.124;5.480;2023-02-19T13:59:32;102547.25;;;6.90;39.64
76637;BME280;65532;52.124;5.480;2023-02-19T14:17:27;102565.53;;;7.53;66.49
76637;BME280;65532;52.124;5.480;2023-02-19T14:25:28;102557.63;;;7.60;71.61
76637;BME280;65532;52.124;5.480;2023-02-19T14:30:32;102551.53;;;7.82;73.82
76637;BME280;65532;52.124;5.480;2023-02-19T14:33:01;102549.84;;;7.81;79.15
76637;BME280;65532;52.124;5.480;2023-02-19T14:35:40;102543.25;;;7.84;79.94
76637;BME280;65532;52.124;5.480;2023-02-19T14:38:21;102537.69;;;7.93;79.28
76637;BME280;65532;52.124;5.480;2023-02-19T14:40:50;102536.31;;;8.05;79.70
76637;BME280;65532;52.124;5.480;2023-02-19T14:43:20;102526.19;;;8.07;80.02
76637;BME280;65532;52.124;5.480;2023-02-19T14:45:58;102525.69;;;8.04;83.13
76637;BME280;65532;52.124;5.480;2023-02-19T14:48:30;102519.78;;;8.08;83.12
76637;BME280;65532;52.124;5.480;2023-02-19T14:51:03;102516.75;;;8.11;83.89
76637;BME280;65532;52.124;5.480;2023-02-19T14:53:37;102518.41;;;8.13;84.84
76637;BME280;65532;52.124;5.480;2023-02-19T14:56:06;102516.38;;;8.15;86.02
76637;BME280;65532;52.124;5.480;2023-02-19T14:58:41;102524.84;;;8.11;86.87
76637;BME280;65532;52.124;5.480;2023-02-19T15:01:24;102509.34;;;8.05;87.97
76637;BME280;65532;52.124;5.480;2023-02-19T15:03:53;102493.84;;;8.07;88.26
76637;BME280;65532;52.124;5.480;2023-02-19T15:06:21;102501.75;;;8.09;88.27
76637;BME280;65532;52.124;5.480;2023-02-19T15:08:52;102503.97;;;8.05;88.51
76637;BME280;65532;52.124;5.480;2023-02-19T15:11:21;102504.94;;;8.04;88.70
76637;BME280;65532;52.124;5.480;2023-02-19T15:13:58;102504.63;;;8.07;89.29
76637;BME280;65532;52.124;5.480;2023-02-19T15:16:27;102516.25;;;8.08;89.53
76637;BME280;65532;52.124;5.480;2023-02-19T15:18:57;102517.94;;;8.09;89.78
76637;BME280;65532;52.124;5.480;2023-02-19T15:21:27;102526.50;;;8.13;89.85
76637;BME280;65532;52.124;5.480;2023-02-19T15:23:56;102538.84;;;8.07;89.40
76637;BME280;65532;52.124;5.480;2023-02-19T15:26:40;102546.41;;;8.03;89.66
76637;BME280;65532;52.124;5.480;2023-02-19T15:29:10;102554.69;;;8.02;89.97